sensor_id;sensor_type;location;lat;lon;timestamp;P1;durP1;ratioP1;P2;durP2;ratioP2
65172;SDS011;69059;52.218;5.172;2023-12-20T00:01:22;11.37;;;1.73;;
65172;SDS011;69059;52.218;5.172;2023-12-20T00:03:49;11.60;;;2.33;;
65172;SDS011;69059;52.218;5.172;2023-12-20T00:06:17;12.10;;;1.90;;
65172;SDS011;69059;52.218;5.172;2023-12-20T00:08:45;27.63;;;2.60;;
65172;SDS011;69059;52.218;5.172;2023-12-20T00:11:14;13.25;;;2.03;;
65172;SDS011;69059;52.218;5.172;2023-12-20T00:13:42;19.30;;;2.20;;
65172;SDS011;69059;52.218;5.172;2023-12-20T00:16:12;19.77;;;2.40;;
65172;SDS011;69059;52.218;5.172;2023-12-20T00:18:40;21.60;;;2.13;;
65172;SDS011;69059;52.218;5.172;2023-12-20T00:21:08;15.23;;;1.90;;
65172;SDS011;69059;52.218;5.172;2023-12-20T00:23:36;15.00;;;2.10;;
65172;SDS011;69059;52.218;5.172;2023-12-20T00:26:04;13.68;;;2.55;;
65172;SDS011;69059;52.218;5.172;2023-12-20T00:28:32;13.07;;;2.13;;
65172;SDS011;69059;52.218;5.172;2023-12-20T00:31:00;15.05;;;2.42;;
65172;SDS011;69059;52.218;5.172;2023-12-20T00:33:30;15.35;;;2.10;;
65172;SDS011;69059;52.218;5.172;2023-12-20T00:35:58;11.03;;;2.00;;
65172;SDS011;69059;52.218;5.172;2023-12-20T00:38:26;14.32;;;2.33;;
65172;SDS011;69059;52.218;5.172;2023-12-20T00:40:53;24.97;;;2.70;;
65172;SDS011;69059;52.218;5.172;2023-12-20T00:43:21;16.02;;;2.10;;
65172;SDS011;69059;52.218;5.172;2023-12-20T00:45:50;17.17;;;2.78;;
65172;SDS011;69059;52.218;5.172;2023-12-20T00:48:18;22.48;;;2.92;;
65172;SDS011;69059;52.218;5.172;2023-12-20T00:50:47;20.17;;;4.33;;
65172;SDS011;69059;52.218;5.172;2023-12-20T00:53:15;14.37;;;2.13;;
65172;SDS011;69059;52.218;5.172;2023-12-20T00:55:43;16.00;;;2.83;;
65172;SDS011;69059;52.218;5.172;2023-12-20T00:58:11;12.38;;;2.08;;
65172;SDS011;69059;52.218;5.172;2023-12-20T01:00:42;17.87;;;2.53;;
65172;SDS011;69059;52.218;5.172;2023-12-20T01:03:10;18.08;;;2.55;;
65172;SDS011;69059;52.218;5.172;2023-12-20T01:05:38;15.10;;;2.70;;
65172;SDS011;69059;52.218;5.172;2023-12-20T01:08:07;20.83;;;2.77;;
65172;SDS011;69059;52.218;5.172;2023-12-20T01:10:35;19.13;;;2.00;;
65172;SDS011;69059;52.218;5.172;2023-12-20T01:13:03;12.63;;;2.78;;
65172;SDS011;69059;52.218;5.172;2023-12-20T01:15:30;23.00;;;2.83;;
65172;SDS011;69059;52.218;5.172;2023-12-20T01:17:58;17.75;;;2.40;;
65172;SDS011;69059;52.218;5.172;2023-12-20T01:20:26;17.57;;;3.33;;
65172;SDS011;69059;52.218;5.172;2023-12-20T01:22:54;18.57;;;2.40;;
65172;SDS011;69059;52.218;5.172;2023-12-20T01:25:23;17.92;;;3.22;;
65172;SDS011;69059;52.218;5.172;2023-12-20T01:27:51;27.23;;;3.27;;
65172;SDS011;69059;52.218;5.172;2023-12-20T01:30:19;19.00;;;3.10;;
65172;SDS011;69059;52.218;5.172;2023-12-20T01:32:47;19.88;;;3.10;;
65172;SDS011;69059;52.218;5.172;2023-12-20T01:35:15;18.23;;;3.33;;
65172;SDS011;69059;52.218;5.172;2023-12-20T01:37:44;18.15;;;2.88;;
65172;SDS011;69059;52.218;5.172;2023-12-20T01:40:12;14.57;;;2.72;;
65172;SDS011;69059;52.218;5.172;2023-12-20T01:42:42;24.08;;;3.95;;
65172;SDS011;69059;52.218;5.172;2023-12-20T01:45:10;29.23;;;4.67;;
65172;SDS011;69059;52.218;5.172;2023-12-20T01:47:38;16.55;;;2.75;;
65172;SDS011;69059;52.218;5.172;2023-12-20T01:52:35;18.20;;;2.67;;
65172;SDS011;69059;52.218;5.172;2023-12-20T01:55:04;28.75;;;3.15;;
65172;SDS011;69059;52.218;5.172;2023-12-20T01:57:39;19.73;;;2.50;;
65172;SDS011;69059;52.218;5.172;2023-12-20T02:00:11;22.97;;;3.83;;
65172;SDS011;69059;52.218;5.172;2023-12-20T02:02:40;21.80;;;3.03;;
65172;SDS011;69059;52.218;5.172;2023-12-20T02:05:09;15.85;;;2.72;;
65172;SDS011;69059;52.218;5.172;2023-12-20T02:07:36;24.63;;;3.10;;
65172;SDS011;69059;52.218;5.172;2023-12-20T02:10:04;21.67;;;3.00;;
65172;SDS011;69059;52.218;5.172;2023-12-20T02:12:33;18.20;;;2.70;;
65172;SDS011;69059;52.218;5.172;2023-12-20T02:15:01;25.27;;;3.67;;
65172;SDS011;69059;52.218;5.172;2023-12-20T02:17:30;16.67;;;2.97;;
65172;SDS011;69059;52.218;5.172;2023-12-20T02:19:59;20.60;;;3.17;;
65172;SDS011;69059;52.218;5.172;2023-12-20T02:22:29;18.50;;;2.80;;
65172;SDS011;69059;52.218;5.172;2023-12-20T02:24:57;20.70;;;3.40;;
65172;SDS011;69059;52.218;5.172;2023-12-20T02:27:25;23.23;;;3.28;;
65172;SDS011;69059;52.218;5.172;2023-12-20T02:29:53;23.58;;;5.68;;
65172;SDS011;69059;52.218;5.172;2023-12-20T02:32:21;26.13;;;3.40;;
65172;SDS011;69059;52.218;5.172;2023-12-20T02:34:52;24.27;;;3.57;;
65172;SDS011;69059;52.218;5.172;2023-12-20T02:37:20;27.70;;;3.13;;
65172;SDS011;69059;52.218;5.172;2023-12-20T02:39:50;22.30;;;3.70;;
65172;SDS011;69059;52.218;5.172;2023-12-20T02:42:18;23.47;;;2.90;;
65172;SDS011;69059;52.218;5.172;2023-12-20T02:44:46;24.67;;;2.88;;
65172;SDS011;69059;52.218;5.172;2023-12-20T02:47:14;23.30;;;3.33;;
65172;SDS011;69059;52.218;5.172;2023-12-20T02:49:42;22.93;;;2.93;;
65172;SDS011;69059;52.218;5.172;2023-12-20T02:52:10;22.98;;;3.08;;
65172;SDS011;69059;52.218;5.172;2023-12-20T02:54:38;24.23;;;3.17;;
65172;SDS011;69059;52.218;5.172;2023-12-20T02:57:07;19.75;;;2.97;;
65172;SDS011;69059;52.218;5.172;2023-12-20T02:59:35;22.83;;;3.83;;
65172;SDS011;69059;52.218;5.172;2023-12-20T03:02:03;25.97;;;3.87;;
65172;SDS011;69059;52.218;5.172;2023-12-20T03:04:31;20.15;;;3.35;;
65172;SDS011;69059;52.218;5.172;2023-12-20T03:06:59;18.13;;;3.35;;
65172;SDS011;69059;52.218;5.172;2023-12-20T03:09:27;25.00;;;3.38;;
65172;SDS011;69059;52.218;5.172;2023-12-20T03:12:04;21.70;;;3.00;;
65172;SDS011;69059;52.218;5.172;2023-12-20T03:14:33;25.20;;;3.50;;
65172;SDS011;69059;52.218;5.172;2023-12-20T03:17:01;19.77;;;2.80;;
65172;SDS011;69059;52.218;5.172;2023-12-20T03:19:29;22.40;;;2.90;;
65172;SDS011;69059;52.218;5.172;2023-12-20T03:21:57;21.48;;;3.38;;
65172;SDS011;69059;52.218;5.172;2023-12-20T03:24:27;26.57;;;3.20;;
65172;SDS011;69059;52.218;5.172;2023-12-20T03:26:55;17.30;;;2.60;;
65172;SDS011;69059;52.218;5.172;2023-12-20T03:29:23;22.77;;;3.22;;
65172;SDS011;69059;52.218;5.172;2023-12-20T03:31:52;22.45;;;2.88;;
65172;SDS011;69059;52.218;5.172;2023-12-20T03:34:20;23.93;;;3.43;;
65172;SDS011;69059;52.218;5.172;2023-12-20T03:36:50;23.67;;;3.20;;
65172;SDS011;69059;52.218;5.172;2023-12-20T03:39:17;25.67;;;3.57;;
65172;SDS011;69059;52.218;5.172;2023-12-20T03:41:45;19.25;;;2.78;;
65172;SDS011;69059;52.218;5.172;2023-12-20T03:44:13;24.55;;;3.67;;
65172;SDS011;69059;52.218;5.172;2023-12-20T03:46:41;25.00;;;3.57;;
65172;SDS011;69059;52.218;5.172;2023-12-20T03:49:10;24.30;;;3.03;;
65172;SDS011;69059;52.218;5.172;2023-12-20T03:51:38;22.17;;;3.03;;
65172;SDS011;69059;52.218;5.172;2023-12-20T03:54:06;28.93;;;5.40;;
65172;SDS011;69059;52.218;5.172;2023-12-20T03:56:34;23.43;;;3.43;;
65172;SDS011;69059;52.218;5.172;2023-12-20T03:59:02;20.47;;;3.17;;
65172;SDS011;69059;52.218;5.172;2023-12-20T04:01:30;21.73;;;3.20;;
65172;SDS011;69059;52.218;5.172;2023-12-20T04:03:58;12.80;;;3.10;;
65172;SDS011;69059;52.218;5.172;2023-12-20T04:06:27;14.77;;;2.70;;
65172;SDS011;69059;52.218;5.172;2023-12-20T04:08:56;18.43;;;2.97;;
65172;SDS011;69059;52.218;5.172;2023-12-20T04:11:24;22.92;;;3.53;;
65172;SDS011;69059;52.218;5.172;2023-12-20T04:13:52;28.03;;;3.70;;
65172;SDS011;69059;52.218;5.172;2023-12-20T04:16:20;21.77;;;2.92;;
65172;SDS011;69059;52.218;5.172;2023-12-20T04:18:48;18.40;;;3.83;;
65172;SDS011;69059;52.218;5.172;2023-12-20T04:21:17;18.75;;;3.25;;
65172;SDS011;69059;52.218;5.172;2023-12-20T04:23:46;22.40;;;3.60;;
65172;SDS011;69059;52.218;5.172;2023-12-20T04:26:14;21.67;;;3.43;;
65172;SDS011;69059;52.218;5.172;2023-12-20T04:28:42;18.07;;;2.80;;
65172;SDS011;69059;52.218;5.172;2023-12-20T04:31:09;23.95;;;3.28;;
65172;SDS011;69059;52.218;5.172;2023-12-20T04:33:38;22.45;;;3.67;;
65172;SDS011;69059;52.218;5.172;2023-12-20T04:36:06;19.45;;;3.35;;
65172;SDS011;69059;52.218;5.172;2023-12-20T04:38:35;23.87;;;3.67;;
65172;SDS011;69059;52.218;5.172;2023-12-20T04:41:05;27.83;;;3.78;;
65172;SDS011;69059;52.218;5.172;2023-12-20T04:43:33;18.93;;;3.37;;
65172;SDS011;69059;52.218;5.172;2023-12-20T04:46:01;47.93;;;4.00;;
65172;SDS011;69059;52.218;5.172;2023-12-20T04:48:28;27.88;;;3.42;;
65172;SDS011;69059;52.218;5.172;2023-12-20T04:50:56;20.42;;;3.08;;
65172;SDS011;69059;52.218;5.172;2023-12-20T04:53:24;24.33;;;3.53;;
65172;SDS011;69059;52.218;5.172;2023-12-20T04:55:52;22.40;;;3.57;;
65172;SDS011;69059;52.218;5.172;2023-12-20T04:58:21;22.77;;;3.35;;
65172;SDS011;69059;52.218;5.172;2023-12-20T05:00:50;23.77;;;3.67;;
65172;SDS011;69059;52.218;5.172;2023-12-20T05:03:18;18.35;;;2.72;;
65172;SDS011;69059;52.218;5.172;2023-12-20T05:05:46;21.65;;;3.17;;
65172;SDS011;69059;52.218;5.172;2023-12-20T05:08:14;20.83;;;4.00;;
65172;SDS011;69059;52.218;5.172;2023-12-20T05:10:42;22.42;;;3.10;;
65172;SDS011;69059;52.218;5.172;2023-12-20T05:13:10;21.43;;;3.10;;
65172;SDS011;69059;52.218;5.172;2023-12-20T05:15:39;21.13;;;3.30;;
65172;SDS011;69059;52.218;5.172;2023-12-20T05:18:07;20.50;;;4.40;;
65172;SDS011;69059;52.218;5.172;2023-12-20T05:20:36;18.90;;;3.17;;
65172;SDS011;69059;52.218;5.172;2023-12-20T05:23:03;19.55;;;3.45;;
65172;SDS011;69059;52.218;5.172;2023-12-20T05:25:31;22.90;;;2.78;;
65172;SDS011;69059;52.218;5.172;2023-12-20T05:27:59;19.95;;;2.70;;
65172;SDS011;69059;52.218;5.172;2023-12-20T05:30:27;23.90;;;3.47;;
65172;SDS011;69059;52.218;5.172;2023-12-20T05:32:56;20.40;;;3.60;;
65172;SDS011;69059;52.218;5.172;2023-12-20T05:35:24;14.73;;;2.83;;
65172;SDS011;69059;52.218;5.172;2023-12-20T05:37:52;22.42;;;3.05;;
65172;SDS011;69059;52.218;5.172;2023-12-20T05:40:20;22.90;;;3.57;;
65172;SDS011;69059;52.218;5.172;2023-12-20T05:42:48;19.77;;;2.77;;
65172;SDS011;69059;52.218;5.172;2023-12-20T05:45:16;18.98;;;2.95;;
65172;SDS011;69059;52.218;5.172;2023-12-20T05:47:44;21.67;;;3.28;;
65172;SDS011;69059;52.218;5.172;2023-12-20T05:50:14;22.42;;;3.00;;
65172;SDS011;69059;52.218;5.172;2023-12-20T05:52:42;17.87;;;2.53;;
65172;SDS011;69059;52.218;5.172;2023-12-20T05:55:10;17.13;;;3.03;;
65172;SDS011;69059;52.218;5.172;2023-12-20T05:57:38;25.15;;;3.15;;
65172;SDS011;69059;52.218;5.172;2023-12-20T06:00:06;23.73;;;2.80;;
65172;SDS011;69059;52.218;5.172;2023-12-20T06:02:35;21.93;;;3.37;;
65172;SDS011;69059;52.218;5.172;2023-12-20T06:05:04;20.27;;;3.60;;
65172;SDS011;69059;52.218;5.172;2023-12-20T06:10:02;22.57;;;3.00;;
65172;SDS011;69059;52.218;5.172;2023-12-20T06:12:30;18.65;;;2.78;;
65172;SDS011;69059;52.218;5.172;2023-12-20T06:14:59;21.10;;;3.53;;
65172;SDS011;69059;52.218;5.172;2023-12-20T06:17:27;22.63;;;3.60;;
65172;SDS011;69059;52.218;5.172;2023-12-20T06:19:57;17.33;;;2.43;;
65172;SDS011;69059;52.218;5.172;2023-12-20T06:24:55;29.20;;;3.17;;
65172;SDS011;69059;52.218;5.172;2023-12-20T06:27:23;23.43;;;3.50;;
65172;SDS011;69059;52.218;5.172;2023-12-20T06:29:51;16.13;;;2.70;;
65172;SDS011;69059;52.218;5.172;2023-12-20T06:32:19;12.90;;;3.27;;
65172;SDS011;69059;52.218;5.172;2023-12-20T06:34:47;21.95;;;3.72;;
65172;SDS011;69059;52.218;5.172;2023-12-20T06:37:15;19.65;;;3.08;;
65172;SDS011;69059;52.218;5.172;2023-12-20T06:39:43;22.67;;;3.30;;
65172;SDS011;69059;52.218;5.172;2023-12-20T06:42:12;22.67;;;3.17;;
65172;SDS011;69059;52.218;5.172;2023-12-20T06:44:40;21.77;;;3.23;;
65172;SDS011;69059;52.218;5.172;2023-12-20T06:47:09;20.60;;;4.13;;
65172;SDS011;69059;52.218;5.172;2023-12-20T06:49:37;24.63;;;3.33;;
65172;SDS011;69059;52.218;5.172;2023-12-20T06:52:04;20.27;;;3.25;;
65172;SDS011;69059;52.218;5.172;2023-12-20T06:54:32;13.97;;;2.83;;
65172;SDS011;69059;52.218;5.172;2023-12-20T06:57:00;23.48;;;3.28;;
65172;SDS011;69059;52.218;5.172;2023-12-20T06:59:30;23.10;;;3.80;;
65172;SDS011;69059;52.218;5.172;2023-12-20T07:01:58;24.90;;;3.50;;
65172;SDS011;69059;52.218;5.172;2023-12-20T07:04:26;19.65;;;3.33;;
65172;SDS011;69059;52.218;5.172;2023-12-20T07:06:54;14.25;;;3.00;;
65172;SDS011;69059;52.218;5.172;2023-12-20T07:09:24;27.20;;;4.47;;
65172;SDS011;69059;52.218;5.172;2023-12-20T07:11:52;20.15;;;3.28;;
65172;SDS011;69059;52.218;5.172;2023-12-20T07:14:20;24.48;;;3.60;;
65172;SDS011;69059;52.218;5.172;2023-12-20T07:16:50;21.35;;;3.05;;
65172;SDS011;69059;52.218;5.172;2023-12-20T07:19:17;24.70;;;3.50;;
65172;SDS011;69059;52.218;5.172;2023-12-20T07:21:45;18.67;;;3.05;;
65172;SDS011;69059;52.218;5.172;2023-12-20T07:24:13;24.33;;;3.60;;
65172;SDS011;69059;52.218;5.172;2023-12-20T07:26:41;21.97;;;4.10;;
65172;SDS011;69059;52.218;5.172;2023-12-20T07:29:09;26.60;;;3.87;;
65172;SDS011;69059;52.218;5.172;2023-12-20T07:31:37;24.97;;;3.93;;
65172;SDS011;69059;52.218;5.172;2023-12-20T07:34:07;20.83;;;4.03;;
65172;SDS011;69059;52.218;5.172;2023-12-20T07:36:35;19.03;;;3.17;;
65172;SDS011;69059;52.218;5.172;2023-12-20T07:39:03;20.55;;;3.63;;
65172;SDS011;69059;52.218;5.172;2023-12-20T07:41:31;25.65;;;3.67;;
65172;SDS011;69059;52.218;5.172;2023-12-20T07:43:59;26.90;;;4.38;;
65172;SDS011;69059;52.218;5.172;2023-12-20T07:46:27;22.10;;;3.63;;
65172;SDS011;69059;52.218;5.172;2023-12-20T07:48:55;23.15;;;3.55;;
65172;SDS011;69059;52.218;5.172;2023-12-20T07:51:24;26.80;;;3.47;;
65172;SDS011;69059;52.218;5.172;2023-12-20T07:53:52;22.20;;;3.67;;
65172;SDS011;69059;52.218;5.172;2023-12-20T07:56:20;22.17;;;4.57;;
65172;SDS011;69059;52.218;5.172;2023-12-20T07:58:48;21.03;;;4.10;;
65172;SDS011;69059;52.218;5.172;2023-12-20T08:01:19;25.77;;;3.40;;
65172;SDS011;69059;52.218;5.172;2023-12-20T08:03:48;30.63;;;3.63;;
65172;SDS011;69059;52.218;5.172;2023-12-20T08:06:18;23.77;;;3.73;;
65172;SDS011;69059;52.218;5.172;2023-12-20T08:08:47;19.58;;;3.10;;
65172;SDS011;69059;52.218;5.172;2023-12-20T08:11:27;32.83;;;3.80;;
65172;SDS011;69059;52.218;5.172;2023-12-20T08:13:55;21.15;;;2.95;;
65172;SDS011;69059;52.218;5.172;2023-12-20T08:16:23;18.53;;;2.87;;
65172;SDS011;69059;52.218;5.172;2023-12-20T13:33:42;17.97;;;3.47;;
65172;SDS011;69059;52.218;5.172;2023-12-20T13:36:30;18.33;;;3.20;;
65172;SDS011;69059;52.218;5.172;2023-12-20T13:39:18;21.75;;;3.47;;
65172;SDS011;69059;52.218;5.172;2023-12-20T13:42:08;19.00;;;2.73;;
65172;SDS011;69059;52.218;5.172;2023-12-20T13:44:56;21.30;;;3.22;;
65172;SDS011;69059;52.218;5.172;2023-12-20T13:47:44;12.85;;;2.33;;
65172;SDS011;69059;52.218;5.172;2023-12-20T13:50:33;17.67;;;2.92;;
65172;SDS011;69059;52.218;5.172;2023-12-20T13:53:21;12.87;;;2.10;;
65172;SDS011;69059;52.218;5.172;2023-12-20T13:56:09;15.57;;;2.97;;
65172;SDS011;69059;52.218;5.172;2023-12-20T13:58:57;14.80;;;2.63;;
65172;SDS011;69059;52.218;5.172;2023-12-20T14:01:46;15.48;;;2.70;;
65172;SDS011;69059;52.218;5.172;2023-12-20T14:04:35;15.17;;;2.90;;
65172;SDS011;69059;52.218;5.172;2023-12-20T14:07:30;16.13;;;2.70;;
65172;SDS011;69059;52.218;5.172;2023-12-20T14:10:19;18.40;;;2.47;;
65172;SDS011;69059;52.218;5.172;2023-12-20T14:13:07;21.75;;;2.90;;
65172;SDS011;69059;52.218;5.172;2023-12-20T14:15:55;17.15;;;2.83;;
65172;SDS011;69059;52.218;5.172;2023-12-20T14:18:43;22.00;;;3.05;;
65172;SDS011;69059;52.218;5.172;2023-12-20T14:21:31;19.73;;;3.20;;
65172;SDS011;69059;52.218;5.172;2023-12-20T14:24:20;18.52;;;3.70;;
65172;SDS011;69059;52.218;5.172;2023-12-20T14:27:08;22.63;;;3.27;;
65172;SDS011;69059;52.218;5.172;2023-12-20T14:32:45;17.38;;;2.80;;
65172;SDS011;69059;52.218;5.172;2023-12-20T14:35:34;17.03;;;2.80;;
65172;SDS011;69059;52.218;5.172;2023-12-20T14:38:22;15.40;;;3.50;;
65172;SDS011;69059;52.218;5.172;2023-12-20T14:41:11;22.52;;;3.65;;
65172;SDS011;69059;52.218;5.172;2023-12-20T14:43:59;15.53;;;3.40;;
65172;SDS011;69059;52.218;5.172;2023-12-20T14:46:51;17.93;;;2.77;;
65172;SDS011;69059;52.218;5.172;2023-12-20T14:49:39;26.45;;;4.05;;
65172;SDS011;69059;52.218;5.172;2023-12-20T14:52:27;23.35;;;3.80;;
65172;SDS011;69059;52.218;5.172;2023-12-20T14:55:15;17.52;;;3.40;;
65172;SDS011;69059;52.218;5.172;2023-12-20T14:58:05;16.58;;;3.35;;
65172;SDS011;69059;52.218;5.172;2023-12-20T15:00:53;20.17;;;3.83;;
65172;SDS011;69059;52.218;5.172;2023-12-20T15:03:42;28.60;;;4.10;;
65172;SDS011;69059;52.218;5.172;2023-12-20T15:06:30;23.35;;;4.00;;
65172;SDS011;69059;52.218;5.172;2023-12-20T15:09:19;25.13;;;5.77;;
65172;SDS011;69059;52.218;5.172;2023-12-20T15:12:08;21.58;;;3.65;;
65172;SDS011;69059;52.218;5.172;2023-12-20T15:14:57;24.10;;;4.60;;
65172;SDS011;69059;52.218;5.172;2023-12-20T15:17:45;19.20;;;2.97;;
65172;SDS011;69059;52.218;5.172;2023-12-20T15:20:33;19.17;;;3.35;;
65172;SDS011;69059;52.218;5.172;2023-12-20T15:23:23;16.87;;;2.73;;
65172;SDS011;69059;52.218;5.172;2023-12-20T15:26:12;19.67;;;5.10;;
65172;SDS011;69059;52.218;5.172;2023-12-20T15:29:00;17.33;;;2.95;;
65172;SDS011;69059;52.218;5.172;2023-12-20T15:31:50;24.08;;;5.97;;
65172;SDS011;69059;52.218;5.172;2023-12-20T15:34:38;20.73;;;4.23;;
65172;SDS011;69059;52.218;5.172;2023-12-20T15:37:26;20.70;;;4.05;;
65172;SDS011;69059;52.218;5.172;2023-12-20T15:40:14;21.60;;;4.20;;
65172;SDS011;69059;52.218;5.172;2023-12-20T15:43:02;21.15;;;3.33;;
65172;SDS011;69059;52.218;5.172;2023-12-20T15:45:50;20.08;;;3.72;;
65172;SDS011;69059;52.218;5.172;2023-12-20T15:48:40;18.50;;;3.72;;
65172;SDS011;69059;52.218;5.172;2023-12-20T15:51:28;28.23;;;5.10;;
65172;SDS011;69059;52.218;5.172;2023-12-20T15:54:16;20.45;;;2.85;;
65172;SDS011;69059;52.218;5.172;2023-12-20T15:57:04;19.92;;;2.83;;
65172;SDS011;69059;52.218;5.172;2023-12-20T15:59:52;19.55;;;3.25;;
65172;SDS011;69059;52.218;5.172;2023-12-20T16:02:40;17.33;;;3.17;;
65172;SDS011;69059;52.218;5.172;2023-12-20T16:05:30;20.63;;;4.20;;
65172;SDS011;69059;52.218;5.172;2023-12-20T16:08:18;18.60;;;2.97;;
65172;SDS011;69059;52.218;5.172;2023-12-20T16:11:06;21.58;;;4.25;;
65172;SDS011;69059;52.218;5.172;2023-12-20T16:13:55;17.55;;;3.60;;
65172;SDS011;69059;52.218;5.172;2023-12-20T16:16:43;15.40;;;3.50;;
65172;SDS011;69059;52.218;5.172;2023-12-20T16:19:31;20.83;;;5.43;;
65172;SDS011;69059;52.218;5.172;2023-12-20T16:22:21;13.13;;;4.00;;
65172;SDS011;69059;52.218;5.172;2023-12-20T16:25:09;21.63;;;4.23;;
65172;SDS011;69059;52.218;5.172;2023-12-20T16:30:46;15.13;;;3.55;;
65172;SDS011;69059;52.218;5.172;2023-12-20T16:36:22;18.40;;;4.55;;
65172;SDS011;69059;52.218;5.172;2023-12-20T16:39:12;28.30;;;6.47;;
65172;SDS011;69059;52.218;5.172;2023-12-20T16:42:00;24.23;;;5.43;;
65172;SDS011;69059;52.218;5.172;2023-12-20T16:44:48;20.15;;;4.45;;
65172;SDS011;69059;52.218;5.172;2023-12-20T16:47:36;19.85;;;4.43;;
65172;SDS011;69059;52.218;5.172;2023-12-20T16:50:24;22.48;;;3.83;;
65172;SDS011;69059;52.218;5.172;2023-12-20T16:53:13;14.60;;;3.28;;
65172;SDS011;69059;52.218;5.172;2023-12-20T16:56:03;19.87;;;4.10;;
65172;SDS011;69059;52.218;5.172;2023-12-20T16:58:52;23.40;;;4.60;;
65172;SDS011;69059;52.218;5.172;2023-12-20T17:01:40;22.45;;;3.92;;
65172;SDS011;69059;52.218;5.172;2023-12-20T17:04:32;18.43;;;4.23;;
65172;SDS011;69059;52.218;5.172;2023-12-20T17:07:20;16.23;;;4.10;;
65172;SDS011;69059;52.218;5.172;2023-12-20T17:10:08;14.65;;;3.42;;
65172;SDS011;69059;52.218;5.172;2023-12-20T17:12:58;15.45;;;3.85;;
65172;SDS011;69059;52.218;5.172;2023-12-20T17:15:46;17.17;;;3.87;;
65172;SDS011;69059;52.218;5.172;2023-12-20T17:21:22;12.82;;;3.80;;
65172;SDS011;69059;52.218;5.172;2023-12-20T17:24:10;24.75;;;3.70;;
65172;SDS011;69059;52.218;5.172;2023-12-20T17:26:59;13.97;;;3.50;;
65172;SDS011;69059;52.218;5.172;2023-12-20T17:29:49;15.93;;;3.77;;
65172;SDS011;69059;52.218;5.172;2023-12-20T17:32:37;15.30;;;4.20;;
65172;SDS011;69059;52.218;5.172;2023-12-20T17:38:14;16.20;;;3.88;;
65172;SDS011;69059;52.218;5.172;2023-12-20T17:41:02;19.13;;;4.57;;
65172;SDS011;69059;52.218;5.172;2023-12-20T17:43:51;16.43;;;3.90;;
65172;SDS011;69059;52.218;5.172;2023-12-20T17:46:40;20.23;;;4.47;;
65172;SDS011;69059;52.218;5.172;2023-12-20T17:49:28;19.50;;;4.87;;
65172;SDS011;69059;52.218;5.172;2023-12-20T17:52:18;21.73;;;5.50;;
65172;SDS011;69059;52.218;5.172;2023-12-20T17:55:06;22.58;;;4.97;;
65172;SDS011;69059;52.218;5.172;2023-12-20T17:57:55;21.03;;;5.60;;
65172;SDS011;69059;52.218;5.172;2023-12-20T18:00:43;20.33;;;4.07;;
65172;SDS011;69059;52.218;5.172;2023-12-20T18:03:33;15.37;;;3.13;;
65172;SDS011;69059;52.218;5.172;2023-12-20T18:06:21;20.63;;;4.53;;
65172;SDS011;69059;52.218;5.172;2023-12-20T18:09:10;17.40;;;3.57;;
65172;SDS011;69059;52.218;5.172;2023-12-20T18:11:58;16.80;;;4.10;;
65172;SDS011;69059;52.218;5.172;2023-12-20T18:14:46;23.55;;;3.85;;
65172;SDS011;69059;52.218;5.172;2023-12-20T18:17:35;17.25;;;3.70;;
65172;SDS011;69059;52.218;5.172;2023-12-20T18:20:24;17.23;;;3.88;;
65172;SDS011;69059;52.218;5.172;2023-12-20T18:23:13;24.80;;;5.10;;
65172;SDS011;69059;52.218;5.172;2023-12-20T18:26:01;23.42;;;4.55;;
65172;SDS011;69059;52.218;5.172;2023-12-20T18:28:49;18.63;;;4.70;;
65172;SDS011;69059;52.218;5.172;2023-12-20T18:31:37;22.52;;;6.82;;
65172;SDS011;69059;52.218;5.172;2023-12-20T18:34:26;17.48;;;4.03;;
65172;SDS011;69059;52.218;5.172;2023-12-20T18:37:17;22.13;;;3.30;;
65172;SDS011;69059;52.218;5.172;2023-12-20T18:40:06;20.87;;;3.27;;
65172;SDS011;69059;52.218;5.172;2023-12-20T18:42:55;18.10;;;3.40;;
65172;SDS011;69059;52.218;5.172;2023-12-20T18:45:45;19.23;;;4.23;;
65172;SDS011;69059;52.218;5.172;2023-12-20T18:48:33;17.77;;;4.95;;
65172;SDS011;69059;52.218;5.172;2023-12-20T18:51:21;19.65;;;4.43;;
65172;SDS011;69059;52.218;5.172;2023-12-20T18:54:10;19.85;;;4.25;;
65172;SDS011;69059;52.218;5.172;2023-12-20T18:56:58;18.47;;;4.47;;
65172;SDS011;69059;52.218;5.172;2023-12-20T18:59:47;18.75;;;3.58;;
65172;SDS011;69059;52.218;5.172;2023-12-20T19:02:35;22.45;;;4.22;;
65172;SDS011;69059;52.218;5.172;2023-12-20T19:05:24;16.20;;;3.60;;
65172;SDS011;69059;52.218;5.172;2023-12-20T19:08:14;20.43;;;3.60;;
65172;SDS011;69059;52.218;5.172;2023-12-20T19:11:03;22.08;;;3.95;;
65172;SDS011;69059;52.218;5.172;2023-12-20T19:13:51;17.53;;;4.13;;
65172;SDS011;69059;52.218;5.172;2023-12-20T19:16:39;17.33;;;4.03;;
65172;SDS011;69059;52.218;5.172;2023-12-20T19:19:28;24.63;;;4.90;;
65172;SDS011;69059;52.218;5.172;2023-12-20T19:22:16;21.10;;;5.43;;
65172;SDS011;69059;52.218;5.172;2023-12-20T19:25:05;29.17;;;5.07;;
65172;SDS011;69059;52.218;5.172;2023-12-20T19:27:56;20.33;;;5.20;;
65172;SDS011;69059;52.218;5.172;2023-12-20T19:30:44;26.47;;;4.80;;
65172;SDS011;69059;52.218;5.172;2023-12-20T19:33:35;26.00;;;4.68;;
65172;SDS011;69059;52.218;5.172;2023-12-20T19:36:23;25.77;;;6.73;;
65172;SDS011;69059;52.218;5.172;2023-12-20T19:39:11;21.10;;;4.90;;
65172;SDS011;69059;52.218;5.172;2023-12-20T19:41:59;16.33;;;4.32;;
65172;SDS011;69059;52.218;5.172;2023-12-20T19:44:49;21.98;;;4.93;;
65172;SDS011;69059;52.218;5.172;2023-12-20T19:47:37;25.00;;;5.67;;
65172;SDS011;69059;52.218;5.172;2023-12-20T19:50:25;26.20;;;6.60;;
65172;SDS011;69059;52.218;5.172;2023-12-20T19:53:13;30.67;;;6.88;;
65172;SDS011;69059;52.218;5.172;2023-12-20T19:56:01;24.65;;;5.72;;
65172;SDS011;69059;52.218;5.172;2023-12-20T19:58:49;22.00;;;5.88;;
65172;SDS011;69059;52.218;5.172;2023-12-20T20:01:39;18.55;;;4.72;;
65172;SDS011;69059;52.218;5.172;2023-12-20T20:04:28;24.07;;;4.53;;
65172;SDS011;69059;52.218;5.172;2023-12-20T20:07:16;16.67;;;4.82;;
65172;SDS011;69059;52.218;5.172;2023-12-20T20:10:06;23.50;;;7.10;;
65172;SDS011;69059;52.218;5.172;2023-12-20T20:12:55;22.97;;;5.60;;
65172;SDS011;69059;52.218;5.172;2023-12-20T20:15:43;22.08;;;5.93;;
65172;SDS011;69059;52.218;5.172;2023-12-20T20:18:33;19.10;;;5.00;;
65172;SDS011;69059;52.218;5.172;2023-12-20T20:21:21;19.77;;;5.57;;
65172;SDS011;69059;52.218;5.172;2023-12-20T20:24:10;22.37;;;5.10;;
65172;SDS011;69059;52.218;5.172;2023-12-20T20:26:58;20.05;;;4.05;;
65172;SDS011;69059;52.218;5.172;2023-12-20T20:29:46;20.88;;;4.15;;
65172;SDS011;69059;52.218;5.172;2023-12-20T20:32:34;18.60;;;5.90;;
65172;SDS011;69059;52.218;5.172;2023-12-20T20:35:23;18.50;;;4.15;;
65172;SDS011;69059;52.218;5.172;2023-12-20T20:38:11;22.03;;;3.30;;
65172;SDS011;69059;52.218;5.172;2023-12-20T20:40:59;19.58;;;3.42;;
65172;SDS011;69059;52.218;5.172;2023-12-20T20:43:48;27.65;;;6.35;;
65172;SDS011;69059;52.218;5.172;2023-12-20T20:46:36;18.92;;;3.97;;
65172;SDS011;69059;52.218;5.172;2023-12-20T20:49:24;17.30;;;4.22;;
65172;SDS011;69059;52.218;5.172;2023-12-20T20:52:14;15.45;;;3.72;;
65172;SDS011;69059;52.218;5.172;2023-12-20T20:55:02;26.17;;;4.30;;
65172;SDS011;69059;52.218;5.172;2023-12-20T20:57:51;12.37;;;3.10;;
65172;SDS011;69059;52.218;5.172;2023-12-20T21:00:39;12.63;;;3.60;;
65172;SDS011;69059;52.218;5.172;2023-12-20T21:03:27;19.13;;;3.72;;
65172;SDS011;69059;52.218;5.172;2023-12-20T21:06:15;17.70;;;2.90;;
65172;SDS011;69059;52.218;5.172;2023-12-20T21:09:05;14.23;;;2.78;;